createdAt,value
2018-05-31T05:49:43.841Z,13.49
2018-05-31T05:50:43.704Z,13.20
2018-05-31T05:51:43.622Z,15.12
2018-05-31T05:52:43.545Z,15.70
2018-05-31T05:53:43.467Z,14.16
2018-05-31T05:54:43.389Z,12.34
2018-05-31T05:55:43.313Z,15.42
2018-05-31T05:56:43.235Z,15.03
2018-05-31T05:57:43.160Z,11.85
2018-05-31T05:58:43.082Z,13.97
2018-05-31T05:59:43.012Z,13.87
2018-05-31T06:00:42.937Z,12.24
2018-05-31T06:01:42.860Z,12.72
2018-05-31T06:02:42.786Z,12.24
2018-05-31T06:03:42.711Z,15.42
2018-05-31T06:04:42.639Z,14.16
2018-05-31T06:05:42.566Z,12.34
2018-05-31T06:06:42.492Z,9.54
2018-05-31T06:07:42.419Z,9.54
2018-05-31T06:08:42.347Z,9.35
2018-05-31T06:09:42.272Z,9.54
2018-05-31T06:10:42.204Z,5.59
2018-05-31T06:11:42.128Z,8.29
2018-05-31T06:12:42.064Z,10.31
2018-05-31T06:13:42.039Z,13.98
2018-05-31T06:14:41.984Z,12.43
2018-05-31T06:15:41.844Z,13.59
2018-05-31T06:16:41.768Z,15.04
2018-05-31T06:17:41.700Z,16.49
2018-05-31T06:18:41.628Z,16.29
2018-05-31T06:19:41.603Z,17.55
2018-05-31T06:20:41.487Z,16.19
2018-05-31T06:21:41.413Z,16.19
2018-05-31T06:22:41.341Z,20.06
2018-05-31T06:23:41.271Z,23.05
2018-05-31T06:24:41.199Z,20.83
2018-05-31T06:25:41.131Z,19.00
2018-05-31T06:26:41.064Z,21.89
2018-05-31T06:27:40.987Z,20.54
2018-05-31T06:28:40.918Z,20.74
2018-05-31T06:29:40.873Z,18.62
2018-05-31T06:30:40.773Z,18.04
2018-05-31T06:31:41.479Z,15.14
2018-05-31T06:32:40.643Z,15.05
2018-05-31T06:33:40.565Z,18.43
2018-05-31T06:34:40.493Z,16.11
2018-05-31T06:35:40.424Z,16.99
2018-05-31T06:36:40.362Z,17.37
2018-05-31T06:37:40.285Z,17.76
2018-05-31T06:38:40.213Z,21.91
2018-05-31T06:39:40.146Z,23.83
2018-05-31T06:40:40.071Z,26.44
2018-05-31T06:41:40.002Z,24.90
2018-05-31T06:42:39.932Z,24.03
2018-05-31T06:43:39.867Z,24.99
2018-05-31T06:44:39.792Z,24.80
2018-05-31T06:45:39.726Z,23.07
2018-05-31T06:46:39.653Z,23.75
2018-05-31T06:47:39.582Z,23.17
2018-05-31T06:48:39.513Z,26.55
2018-05-31T06:49:39.441Z,26.55
2018-05-31T06:50:39.372Z,24.52
2018-05-31T06:51:39.302Z,24.81
2018-05-31T06:52:39.234Z,25.10
2018-05-31T06:53:39.168Z,24.52
2018-05-31T06:54:39.097Z,22.59
2018-05-31T06:55:39.023Z,23.65
2018-05-31T06:56:38.954Z,26.84
2018-05-31T06:57:38.883Z,28.59
2018-05-31T06:58:38.825Z,27.91
2018-05-31T06:59:38.748Z,28.88
2018-05-31T07:00:38.675Z,27.04
2018-05-31T07:01:38.607Z,26.37
2018-05-31T07:02:38.534Z,25.70
2018-05-31T07:03:38.465Z,30.62
2018-05-31T07:04:38.414Z,31.49
2018-05-31T07:05:38.327Z,30.91
2018-05-31T07:06:38.258Z,28.20
2018-05-31T07:07:38.190Z,31.49
2018-05-31T07:08:38.120Z,31.88
2018-05-31T07:09:38.053Z,31.20
2018-05-31T07:10:37.983Z,31.88
2018-05-31T07:11:37.913Z,36.90
2018-05-31T07:12:37.844Z,46.00
2018-05-31T07:13:37.778Z,43.10
2018-05-31T07:14:37.720Z,46.78
2018-05-31T07:15:37.635Z,44.26
2018-05-31T07:16:37.566Z,42.62
2018-05-31T07:17:37.497Z,41.46
2018-05-31T07:18:37.428Z,43.40
2018-05-31T07:19:37.359Z,47.55
2018-05-31T07:20:37.291Z,50.74
2018-05-31T07:21:37.219Z,55.47
2018-05-31T07:22:37.151Z,53.35
2018-05-31T07:23:37.081Z,51.51
2018-05-31T07:24:37.015Z,53.35
2018-05-31T07:25:36.949Z,50.93
2018-05-31T07:26:36.881Z,52.19
2018-05-31T07:27:36.807Z,52.09
2018-05-31T07:28:36.738Z,50.45
2018-05-31T07:29:36.671Z,52.00
2018-05-31T07:30:36.600Z,51.93
2018-05-31T07:31:36.532Z,52.61
2018-05-31T07:32:36.469Z,52.02
2018-05-31T07:33:36.397Z,51.73
2018-05-31T07:34:36.332Z,52.02
2018-05-31T07:35:36.258Z,56.86
2018-05-31T07:36:36.202Z,53.38
2018-05-31T07:37:36.123Z,55.79
2018-05-31T07:38:36.057Z,56.28
2018-05-31T07:39:35.985Z,58.12
2018-05-31T07:40:35.910Z,55.41
2018-05-31T07:41:35.842Z,56.57
2018-05-31T07:42:35.774Z,57.05
2018-05-31T07:43:35.705Z,55.73
2018-05-31T07:44:35.640Z,53.79
2018-05-31T07:45:35.566Z,53.02
2018-05-31T07:46:35.498Z,55.34
2018-05-31T07:47:35.429Z,57.86
2018-05-31T07:48:35.361Z,58.34
2018-05-31T07:49:35.293Z,58.63
2018-05-31T07:50:35.221Z,60.27
2018-05-31T07:51:35.154Z,58.04
2018-05-31T07:52:35.086Z,58.44
2018-05-31T07:53:35.018Z,59.98
2018-05-31T07:54:34.950Z,65.20
2018-05-31T07:55:34.885Z,68.21
2018-05-31T07:56:34.814Z,66.17
2018-05-31T07:57:34.741Z,65.69
2018-05-31T07:58:34.673Z,70.24
2018-05-31T07:59:34.606Z,66.95
2018-05-31T08:00:34.537Z,69.95
2018-05-31T08:01:34.471Z,68.79
2018-05-31T08:02:34.399Z,69.46
2018-05-31T08:03:34.331Z,70.86
2018-05-31T08:04:34.270Z,67.76
2018-05-31T08:05:34.196Z,69.40
2018-05-31T08:06:34.123Z,71.04
2018-05-31T08:07:34.058Z,67.08
2018-05-31T08:08:33.987Z,65.24
2018-05-31T08:09:33.921Z,61.95
2018-05-31T08:10:33.853Z,69.98
2018-05-31T08:11:33.783Z,68.63
2018-05-31T08:12:33.733Z,69.31
2018-05-31T08:13:33.647Z,71.24
2018-05-31T08:14:33.576Z,67.11
2018-05-31T08:15:33.511Z,66.24
2018-05-31T08:16:33.445Z,70.70
2018-05-31T08:17:33.373Z,67.88
2018-05-31T08:18:33.303Z,65.85
2018-05-31T08:19:33.237Z,66.63
2018-05-31T08:20:33.169Z,68.18
2018-05-31T08:21:33.103Z,69.53
2018-05-31T08:22:33.031Z,71.18
2018-05-31T08:23:32.961Z,69.73
2018-05-31T08:24:32.896Z,71.47
2018-05-31T08:25:32.828Z,68.95
2018-05-31T08:26:32.758Z,71.18
2018-05-31T08:27:32.694Z,70.01
2018-05-31T08:28:32.629Z,78.83
2018-05-31T08:29:32.555Z,76.21
2018-05-31T08:30:32.489Z,73.21
2018-05-31T08:31:32.447Z,74.76
2018-05-31T08:32:32.350Z,76.89
2018-05-31T08:33:32.282Z,78.54
2018-05-31T08:34:32.216Z,77.67
2018-05-31T08:35:32.146Z,73.50
2018-05-31T08:36:32.080Z,74.90
2018-05-31T08:37:32.009Z,71.22
2018-05-31T08:38:31.948Z,68.30
2018-05-31T08:39:31.876Z,73.15
2018-05-31T08:40:31.805Z,73.15
2018-05-31T08:41:31.740Z,74.41
2018-05-31T08:42:31.673Z,76.25
2018-05-31T08:43:31.601Z,79.25
2018-05-31T08:44:31.534Z,80.13
2018-05-31T08:45:31.465Z,80.42
2018-05-31T08:46:31.396Z,78.77
2018-05-31T08:47:31.330Z,77.80
2018-05-31T08:48:31.272Z,73.83
2018-05-31T08:49:31.194Z,76.45
2018-05-31T08:50:31.126Z,79.06
2018-05-31T08:51:31.061Z,80.32
2018-05-31T08:52:30.994Z,85.46
2018-05-31T08:53:30.922Z,88.85
2018-05-31T08:54:30.853Z,88.07
2018-05-31T08:55:30.786Z,87.01
2018-05-31T08:56:30.725Z,84.10
2018-05-31T08:57:30.666Z,82.45
2018-05-31T08:58:30.590Z,82.07
2018-05-31T08:59:30.516Z,82.84
2018-05-31T09:00:30.449Z,81.29
2018-05-31T09:01:30.383Z,77.42
2018-05-31T09:02:30.311Z,82.50
2018-05-31T09:03:30.243Z,81.91
2018-05-31T09:04:30.175Z,80.36
2018-05-31T09:05:30.108Z,78.13
2018-05-31T09:06:30.039Z,77.36
2018-05-31T09:07:29.976Z,84.72
2018-05-31T09:08:29.907Z,85.60
2018-05-31T09:09:29.882Z,85.21
2018-05-31T09:10:29.767Z,85.02
2018-05-31T09:11:29.703Z,84.72
2018-05-31T09:12:29.655Z,84.14
2018-05-31T09:13:29.566Z,85.99
2018-05-31T09:14:29.500Z,84.34
2018-05-31T09:15:29.433Z,83.17
2018-05-31T09:16:29.362Z,85.30
2018-05-31T09:17:29.294Z,81.13
2018-05-31T09:18:29.226Z,82.10
2018-05-31T09:19:29.166Z,81.91
2018-05-31T09:20:29.091Z,79.78
2018-05-31T09:21:29.023Z,79.88
2018-05-31T09:22:28.954Z,79.78
2018-05-31T09:23:28.939Z,80.65
2018-05-31T09:24:28.820Z,82.15
2018-05-31T09:25:28.750Z,79.04
2018-05-31T09:26:28.686Z,79.04
2018-05-31T09:27:28.616Z,81.08
2018-05-31T09:28:28.567Z,79.33
2018-05-31T09:29:28.481Z,83.60
2018-05-31T09:30:28.415Z,80.11
2018-05-31T09:31:28.346Z,82.15
2018-05-31T09:32:28.275Z,87.19
2018-05-31T09:33:28.209Z,84.86
2018-05-31T09:34:28.158Z,79.72
2018-05-31T09:35:28.074Z,78.36
2018-05-31T09:36:28.007Z,77.11
2018-05-31T09:37:27.938Z,80.30
2018-05-31T09:38:27.881Z,80.30
2018-05-31T09:39:27.947Z,80.79
2018-05-31T09:40:27.739Z,78.07
2018-05-31T09:41:27.667Z,78.17
2018-05-31T09:42:27.604Z,79.91
2018-05-31T09:43:27.532Z,82.05
2018-05-31T09:44:27.468Z,81.76
2018-05-31T09:45:27.399Z,78.56
2018-05-31T09:46:27.329Z,78.02
2018-05-31T09:47:27.262Z,77.62
2018-05-31T09:48:27.194Z,76.75
2018-05-31T09:49:27.133Z,82.77
2018-05-31T09:50:27.061Z,85.58
2018-05-31T09:51:26.994Z,85.97
2018-05-31T09:52:26.927Z,84.61
2018-05-31T09:53:26.859Z,79.86
2018-05-31T09:54:26.789Z,80.25
2018-05-31T09:55:26.724Z,81.90
2018-05-31T09:56:26.687Z,85.29
2018-05-31T09:57:26.588Z,88.49
2018-05-31T09:58:26.521Z,84.52
2018-05-31T09:59:26.457Z,79.57
2018-05-31T10:00:26.387Z,79.28
2018-05-31T10:01:26.320Z,87.13
2018-05-31T10:02:26.273Z,86.75
2018-05-31T10:03:26.198Z,82.09
2018-05-31T10:04:26.123Z,85.49
2018-05-31T10:05:26.051Z,84.12
2018-05-31T10:06:25.980Z,83.45
2018-05-31T10:07:25.918Z,78.73
2018-05-31T10:08:25.850Z,73.78
2018-05-31T10:09:25.779Z,74.56
2018-05-31T10:10:25.711Z,75.14
2018-05-31T10:11:25.645Z,79.51
2018-05-31T10:12:25.577Z,81.74
2018-05-31T10:13:25.512Z,84.85
2018-05-31T10:14:25.442Z,91.55
2018-05-31T10:15:25.376Z,91.64
2018-05-31T10:16:25.309Z,89.12
2018-05-31T10:17:25.240Z,90.97
2018-05-31T10:18:25.195Z,91.55
2018-05-31T10:19:25.107Z,92.61
2018-05-31T10:20:25.049Z,91.55
2018-05-31T10:21:24.973Z,89.70
2018-05-31T10:22:24.903Z,90.00
2018-05-31T10:23:24.836Z,87.08
2018-05-31T10:24:24.770Z,88.24
2018-05-31T10:25:24.729Z,91.25
2018-05-31T10:26:24.636Z,91.25
2018-05-31T10:27:24.567Z,89.03
2018-05-31T10:28:24.500Z,88.48
2018-05-31T10:29:24.436Z,84.50
2018-05-31T10:30:24.370Z,81.10
2018-05-31T10:31:24.302Z,82.37
2018-05-31T10:32:24.230Z,81.20
2018-05-31T10:33:24.169Z,81.78
2018-05-31T10:34:24.097Z,77.22
2018-05-31T10:35:24.031Z,86.05
2018-05-31T10:36:23.965Z,83.34
2018-05-31T10:37:23.897Z,86.49
2018-05-31T10:38:23.829Z,82.99
2018-05-31T10:39:23.780Z,86.00
2018-05-31T10:40:23.696Z,82.02
2018-05-31T10:41:23.629Z,83.09
2018-05-31T10:42:23.561Z,85.52
2018-05-31T10:43:23.497Z,84.88
2018-05-31T10:44:23.429Z,85.75
2018-05-31T10:45:23.362Z,90.03
2018-05-31T10:46:23.343Z,90.37
2018-05-31T10:47:23.235Z,86.92
2018-05-31T10:48:23.162Z,91.00
2018-05-31T10:49:23.094Z,91.97
2018-05-31T10:50:23.054Z,91.97
2018-05-31T10:51:22.961Z,93.43
2018-05-31T10:52:22.894Z,91.39
2018-05-31T10:53:22.828Z,88.57
2018-05-31T10:54:22.763Z,99.85
2018-05-31T10:55:22.694Z,96.83
2018-05-31T10:56:22.628Z,94.60
2018-05-31T10:57:22.573Z,97.03
2018-05-31T10:58:22.496Z,98.10
2018-05-31T10:59:22.431Z,96.93
2018-05-31T11:00:22.362Z,94.16
2018-05-31T11:01:22.300Z,92.60
2018-05-31T11:02:22.229Z,92.90
2018-05-31T11:03:22.162Z,94.16
2018-05-31T11:04:22.106Z,91.24
2018-05-31T11:05:22.032Z,90.27
2018-05-31T11:06:21.964Z,85.31
2018-05-31T11:07:21.896Z,89.53
2018-05-31T11:08:21.839Z,88.46
2018-05-31T11:09:21.770Z,86.03
2018-05-31T11:10:21.698Z,87.98
2018-05-31T11:11:21.637Z,86.17
2018-05-31T11:12:21.585Z,88.70
2018-05-31T11:13:21.502Z,91.14
2018-05-31T11:14:21.435Z,91.52
2018-05-31T11:15:21.368Z,94.84
2018-05-31T11:16:21.303Z,91.42
2018-05-31T11:17:21.235Z,94.93
2018-05-31T11:18:21.171Z,96.59
2018-05-31T11:19:21.105Z,96.20
2018-05-31T11:20:21.039Z,93.91
2018-05-31T11:21:20.973Z,96.44
2018-05-31T11:22:20.904Z,94.78
2018-05-31T11:23:20.840Z,91.38
2018-05-31T11:24:20.777Z,92.44
2018-05-31T11:25:20.709Z,95.66
2018-05-31T11:26:20.642Z,93.76
2018-05-31T11:27:20.575Z,95.81
2018-05-31T11:28:20.512Z,97.56
2018-05-31T11:29:20.536Z,97.75
2018-05-31T11:30:20.380Z,96.49
2018-05-31T11:31:20.322Z,97.56
2018-05-31T11:32:20.257Z,97.66
2018-05-31T11:33:20.186Z,98.83
2018-05-31T11:34:20.118Z,97.95
2018-05-31T11:35:20.057Z,95.37
2018-05-31T11:36:19.988Z,98.14
2018-05-31T11:37:19.923Z,99.12
2018-05-31T11:38:19.859Z,97.17
2018-05-31T11:39:19.794Z,97.27
2018-05-31T11:40:19.726Z,96.24
2018-05-31T11:41:19.661Z,94.29
2018-05-31T11:42:19.601Z,93.22
2018-05-31T11:43:19.528Z,95.85
2018-05-31T11:44:19.464Z,95.66
2018-05-31T11:45:19.398Z,94.92
2018-05-31T11:46:19.333Z,93.85
2018-05-31T11:47:19.268Z,96.78
2018-05-31T11:48:19.203Z,94.63
2018-05-31T11:49:19.136Z,94.73
2018-05-31T11:50:19.071Z,98.10
2018-05-31T11:51:19.009Z,94.63
2018-05-31T11:52:18.942Z,94.92
2018-05-31T11:53:18.901Z,95.85
2018-05-31T11:54:18.829Z,95.75
2018-05-31T11:55:18.747Z,99.07
2018-05-31T11:56:18.729Z,97.41
2018-05-31T11:57:18.614Z,96.92
2018-05-31T11:58:18.549Z,98.19
2018-05-31T11:59:18.485Z,97.41
2018-05-31T12:00:18.421Z,98.29
2018-05-31T12:01:18.355Z,95.95
2018-05-31T12:02:18.289Z,96.58
2018-05-31T12:03:18.226Z,94.92
2018-05-31T12:04:18.162Z,96.88
2018-05-31T12:05:18.095Z,96.39
2018-05-31T12:06:18.030Z,96.88
2018-05-31T12:07:17.963Z,97.17
2018-05-31T12:08:17.982Z,95.41
2018-05-31T12:09:17.834Z,97.27
2018-05-31T12:10:17.769Z,95.21
2018-05-31T12:11:17.750Z,97.46
2018-05-31T12:12:17.688Z,97.02
2018-05-31T12:13:17.577Z,96.24
2018-05-31T12:14:17.512Z,98.19
2018-05-31T12:15:17.445Z,97.41
2018-05-31T12:16:17.381Z,97.51
2018-05-31T12:17:17.349Z,96.39
2018-05-31T12:18:17.261Z,97.46
2018-05-31T12:19:17.187Z,95.41
2018-05-31T12:20:17.144Z,94.63
2018-05-31T12:21:17.064Z,97.46
2018-05-31T12:22:16.994Z,97.80
2018-05-31T12:23:16.928Z,97.31
2018-05-31T12:24:16.863Z,95.45
2018-05-31T12:25:16.796Z,96.33
2018-05-31T12:26:16.741Z,95.94
2018-05-31T12:27:16.668Z,96.53
2018-05-31T12:28:16.604Z,97.99
2018-05-31T12:29:16.539Z,96.87
2018-05-31T12:30:16.472Z,96.77
2018-05-31T12:31:16.411Z,92.96
2018-05-31T12:32:16.391Z,89.83
2018-05-31T12:33:16.282Z,91.98
2018-05-31T12:34:16.216Z,96.19
2018-05-31T12:35:16.152Z,90.61
2018-05-31T12:36:16.088Z,91.69
2018-05-31T12:37:16.025Z,94.27
2018-05-31T12:38:15.959Z,88.66
2018-05-31T12:39:15.916Z,94.43
2018-05-31T12:40:15.839Z,95.45
2018-05-31T12:41:15.767Z,94.53
2018-05-31T12:42:15.702Z,92.71
2018-05-31T12:43:15.637Z,88.60
2018-05-31T12:44:15.573Z,82.83
2018-05-31T12:45:15.509Z,89.29
2018-05-31T12:46:15.445Z,87.73
2018-05-31T12:47:15.381Z,89.87
2018-05-31T12:48:15.317Z,85.47
2018-05-31T12:49:15.254Z,87.92
2018-05-31T12:50:15.189Z,88.90
2018-05-31T12:51:15.136Z,93.30
2018-05-31T12:52:15.080Z,92.27
2018-05-31T12:53:14.998Z,80.33
2018-05-31T12:54:14.934Z,75.93
2018-05-31T12:55:14.875Z,80.62
2018-05-31T12:56:14.820Z,77.59
2018-05-31T12:57:14.797Z,86.83
2018-05-31T12:58:14.696Z,86.93
2018-05-31T12:59:14.651Z,77.53
2018-05-31T13:00:14.716Z,75.18
2018-05-31T13:01:14.568Z,79.00
2018-05-31T13:02:14.778Z,85.36
2018-05-31T13:03:14.796Z,88.05
2018-05-31T13:04:14.316Z,78.64
2018-05-31T13:05:14.261Z,68.46
2018-05-31T13:06:14.194Z,62.81
2018-05-31T13:07:14.128Z,64.84
2018-05-31T13:08:14.073Z,66.14
2018-05-31T13:09:14.011Z,68.40
2018-05-31T13:10:13.952Z,60.16
2018-05-31T13:11:13.889Z,65.09
2018-05-31T13:12:13.829Z,70.68
2018-05-31T13:13:13.777Z,70.19
2018-05-31T13:14:13.709Z,72.09
2018-05-31T13:15:13.648Z,73.36
2018-05-31T13:16:13.589Z,72.91
2018-05-31T13:17:13.532Z,71.04
2018-05-31T13:18:13.468Z,53.77
2018-05-31T13:19:13.425Z,52.11
2018-05-31T13:20:13.355Z,49.07
2018-05-31T13:21:13.293Z,47.20
2018-05-31T13:22:13.231Z,51.12
2018-05-31T13:23:13.187Z,49.43
2018-05-31T13:24:13.112Z,50.90
2018-05-31T13:25:13.088Z,49.14
2018-05-31T13:26:12.988Z,46.86
2018-05-31T13:27:12.928Z,47.94
2018-05-31T13:28:12.868Z,47.64
2018-05-31T13:29:12.806Z,56.17
2018-05-31T13:30:12.749Z,63.23
2018-05-31T13:31:12.684Z,67.09
2018-05-31T13:32:12.625Z,73.17
2018-05-31T13:33:12.566Z,49.82
2018-05-31T13:34:12.500Z,57.06
2018-05-31T13:35:12.443Z,61.60
2018-05-31T13:36:12.386Z,65.62
2018-05-31T13:37:12.317Z,57.48
2018-05-31T13:38:12.265Z,58.19
2018-05-31T13:39:12.196Z,63.26
2018-05-31T13:40:12.139Z,64.37
2018-05-31T13:41:12.085Z,57.60
2018-05-31T13:42:12.013Z,55.83
2018-05-31T13:43:12.016Z,48.47
2018-05-31T13:44:11.925Z,55.44
2018-05-31T13:45:11.840Z,60.25
2018-05-31T13:46:11.763Z,51.91
2018-05-31T13:47:11.704Z,60.38
2018-05-31T13:48:11.642Z,46.63
2018-05-31T13:49:11.584Z,46.44
2018-05-31T13:50:11.517Z,47.79
2018-05-31T13:51:11.459Z,45.53
2018-05-31T13:52:11.397Z,48.67
2018-05-31T13:53:11.333Z,49.95
2018-05-31T13:54:11.268Z,49.55
2018-05-31T13:55:11.211Z,59.20
2018-05-31T13:56:11.144Z,62.93
2018-05-31T13:57:11.083Z,59.20
2018-05-31T13:58:11.025Z,48.50
2018-05-31T13:59:10.989Z,48.11
2018-05-31T14:00:10.896Z,46.83
2018-05-31T14:01:10.863Z,44.18
2018-05-31T14:02:10.772Z,43.49
2018-05-31T14:03:10.713Z,43.08
2018-05-31T14:04:10.649Z,49.68
2018-05-31T14:05:10.594Z,53.60
2018-05-31T14:06:10.530Z,49.68
2018-05-31T14:07:10.960Z,54.29
2018-05-31T14:08:10.401Z,52.33
2018-05-31T14:09:10.978Z,44.27
2018-05-31T14:10:10.961Z,40.86
2018-05-31T14:11:10.215Z,42.80
2018-05-31T14:12:10.152Z,43.49
2018-05-31T14:13:10.974Z,44.08
2018-05-31T14:14:10.033Z,47.64
2018-05-31T14:15:09.962Z,44.01
2018-05-31T14:16:10.536Z,48.72
2018-05-31T14:17:09.839Z,49.41
2018-05-31T14:18:10.464Z,41.47
2018-05-31T14:19:09.713Z,41.86
2018-05-31T14:20:10.465Z,42.04
2018-05-31T14:21:09.593Z,48.74
2018-05-31T14:22:09.527Z,41.64
2018-05-31T14:23:10.467Z,45.18
2018-05-31T14:24:09.967Z,45.48
2018-05-31T14:25:09.987Z,45.38
2018-05-31T14:26:09.278Z,49.01
2018-05-31T14:27:09.227Z,52.65
2018-05-31T14:28:09.152Z,49.31
2018-05-31T14:29:09.969Z,56.18
2018-05-31T14:30:09.081Z,58.84
2018-05-31T14:31:08.964Z,53.75
2018-05-31T14:32:08.910Z,55.03
2018-05-31T14:33:08.840Z,52.28
2018-05-31T14:34:08.779Z,52.28
2018-05-31T14:35:09.479Z,53.16
2018-05-31T14:36:09.555Z,52.38
2018-05-31T14:37:08.609Z,49.13
2018-05-31T14:38:08.530Z,54.25
2018-05-31T14:39:08.978Z,49.43
2018-05-31T14:40:08.972Z,50.61
2018-05-31T14:41:08.342Z,51.50
2018-05-31T14:42:08.973Z,53.83
2018-05-31T14:43:08.992Z,49.01
2018-05-31T14:44:08.973Z,49.51
2018-05-31T14:45:08.100Z,53.53
2018-05-31T14:46:08.038Z,51.15
2018-05-31T14:47:08.475Z,48.99
2018-05-31T14:48:07.919Z,47.89
2018-05-31T14:49:08.493Z,49.85
2018-05-31T14:50:07.783Z,51.22
2018-05-31T14:51:08.491Z,48.08
2018-05-31T14:52:07.656Z,51.69
2018-05-31T14:53:07.594Z,51.79
2018-05-31T14:54:07.529Z,50.90
2018-05-31T14:55:07.531Z,53.65
2018-05-31T14:56:07.404Z,53.55
2018-05-31T14:57:07.341Z,50.09
2018-05-31T14:58:07.977Z,54.31
2018-05-31T14:59:07.213Z,53.23
2018-05-31T15:00:07.981Z,54.41
2018-05-31T15:01:07.979Z,55.00
2018-05-31T15:02:07.025Z,55.12
2018-05-31T15:03:06.962Z,53.85
2018-05-31T15:04:07.549Z,55.05
2018-05-31T15:05:06.840Z,59.39
2018-05-31T15:06:06.773Z,54.02
2018-05-31T15:07:06.710Z,57.36
2018-05-31T15:08:06.649Z,54.83
2018-05-31T15:09:06.585Z,52.55
2018-05-31T15:10:06.529Z,57.92
2018-05-31T15:11:06.464Z,52.69
2018-05-31T15:12:06.399Z,55.64
2018-05-31T15:13:06.368Z,61.99
2018-05-31T15:14:06.284Z,61.20
2018-05-31T15:15:06.213Z,58.62
2018-05-31T15:16:06.986Z,61.27
2018-05-31T15:17:06.986Z,62.15
2018-05-31T15:18:06.078Z,66.14
2018-05-31T15:19:05.964Z,60.26
2018-05-31T15:20:05.959Z,60.82
2018-05-31T15:21:06.489Z,61.99
2018-05-31T15:22:06.484Z,63.07
2018-05-31T15:23:05.712Z,69.64
2018-05-31T15:24:06.485Z,69.54
2018-05-31T15:25:05.588Z,70.90
2018-05-31T15:26:06.487Z,70.42
2018-05-31T15:27:05.990Z,62.35
2018-05-31T15:28:05.988Z,66.17
2018-05-31T15:29:05.342Z,57.36
2018-05-31T15:30:05.270Z,55.90
2018-05-31T15:31:05.986Z,60.00
2018-05-31T15:32:05.155Z,59.12
2018-05-31T15:33:05.081Z,55.70
2018-05-31T15:34:05.995Z,55.26
2018-05-31T15:35:05.494Z,53.21
2018-05-31T15:36:05.585Z,47.88
2018-05-31T15:37:04.829Z,47.85
2018-05-31T15:38:05.490Z,45.14
2018-05-31T15:39:04.704Z,42.89
2018-05-31T15:40:05.491Z,44.60
2018-05-31T15:41:04.581Z,48.99
2018-05-31T15:42:05.504Z,49.82
2018-05-31T15:43:04.456Z,55.10
2018-05-31T15:44:04.397Z,56.13
2018-05-31T15:45:04.996Z,61.10
2018-05-31T15:46:04.269Z,64.51
2018-05-31T15:47:04.278Z,70.78
2018-05-31T15:48:04.993Z,70.75
2018-05-31T15:49:04.081Z,72.57
2018-05-31T15:50:04.159Z,72.08
2018-05-31T15:51:04.493Z,76.26
2018-05-31T15:52:04.499Z,72.80
2018-05-31T15:53:03.838Z,79.16
2018-05-31T15:54:03.772Z,75.99
2018-05-31T15:55:04.494Z,76.57
2018-05-31T15:56:05.526Z,78.92
2018-05-31T15:57:03.607Z,76.64
2018-05-31T15:58:03.518Z,77.61
2018-05-31T15:59:04.017Z,82.01
2018-05-31T16:00:03.395Z,79.53
2018-05-31T16:01:03.329Z,80.21
2018-05-31T16:02:03.263Z,80.41
2018-05-31T16:03:04.028Z,79.92
2018-05-31T16:04:03.138Z,80.47
2018-05-31T16:05:03.082Z,80.76
2018-05-31T16:06:03.010Z,80.96
2018-05-31T16:07:03.521Z,78.71
2018-05-31T16:08:02.884Z,81.70
2018-05-31T16:09:03.500Z,72.17
2018-05-31T16:10:03.504Z,71.15
2018-05-31T16:11:03.501Z,71.84
2018-05-31T16:12:02.626Z,71.80
2018-05-31T16:13:02.578Z,73.99
2018-05-31T16:14:02.495Z,74.93
2018-05-31T16:15:03.006Z,73.66
2018-05-31T16:16:02.377Z,75.70
2018-05-31T16:17:03.026Z,76.58
2018-05-31T16:18:02.244Z,77.46
2018-05-31T16:19:02.172Z,81.52
2018-05-31T16:20:02.168Z,82.89
2018-05-31T16:21:02.046Z,84.25
2018-05-31T16:22:01.975Z,86.06
2018-05-31T16:23:02.505Z,85.28
2018-05-31T16:24:02.504Z,86.94
2018-05-31T16:25:01.778Z,85.77
2018-05-31T16:26:01.716Z,84.01
2018-05-31T16:27:01.656Z,84.50
2018-05-31T16:28:01.585Z,85.33
2018-05-31T16:29:01.519Z,86.21
2018-05-31T16:30:01.452Z,86.11
2018-05-31T16:31:01.389Z,87.67
2018-05-31T16:32:02.010Z,86.90
2018-05-31T16:33:01.257Z,86.80
2018-05-31T16:34:02.014Z,87.77
2018-05-31T16:35:01.131Z,88.12
2018-05-31T16:36:01.065Z,87.53
2018-05-31T16:37:01.010Z,87.82
2018-05-31T16:38:01.510Z,88.31
2018-05-31T16:39:01.509Z,89.29
2018-05-31T16:40:00.798Z,88.80
2018-05-31T16:41:01.513Z,89.14
2018-05-31T16:42:01.524Z,89.29
2018-05-31T16:43:00.601Z,89.34
2018-05-31T16:44:00.557Z,90.80
2018-05-31T16:45:00.474Z,90.31
2018-05-31T16:46:00.402Z,90.61
2018-05-31T16:47:00.333Z,89.83
2018-05-31T16:48:00.268Z,90.61
2018-05-31T16:49:01.027Z,89.73
2018-05-31T16:50:00.140Z,89.73
2018-05-31T16:51:00.075Z,90.31
2018-05-31T16:52:00.016Z,90.61
2018-05-31T16:53:00.519Z,90.02
2018-05-31T16:54:00.514Z,90.41
2018-05-31T16:54:59.812Z,90.66
2018-05-31T16:55:59.737Z,90.27
2018-05-31T16:56:59.671Z,90.27
2018-05-31T16:58:00.518Z,90.75
2018-05-31T16:58:59.537Z,90.95
2018-05-31T17:00:00.020Z,91.44
2018-05-31T17:00:59.403Z,90.75
2018-05-31T17:01:59.337Z,91.14
2018-05-31T17:03:00.017Z,91.05
2018-05-31T17:04:00.020Z,91.24
2018-05-31T17:05:00.024Z,91.10
2018-05-31T17:05:59.071Z,91.14
2018-05-31T17:06:59.004Z,91.58
2018-05-31T17:07:58.939Z,91.58
2018-05-31T17:08:58.882Z,90.81
2018-05-31T17:09:59.520Z,91.78
2018-05-31T17:10:59.539Z,91.78
2018-05-31T17:11:59.521Z,91.58
2018-05-31T17:12:59.559Z,92.36
2018-05-31T17:13:58.542Z,91.49
2018-05-31T17:14:59.088Z,91.58
2018-05-31T17:15:59.031Z,91.39
2018-05-31T17:16:58.346Z,91.10
2018-05-31T17:17:58.276Z,91.10
2018-05-31T17:18:58.208Z,91.39
2018-05-31T17:19:58.138Z,90.32
2018-05-31T17:20:58.069Z,91.39
2018-05-31T17:21:58.010Z,90.37
2018-05-31T17:22:57.936Z,90.12
2018-05-31T17:23:57.868Z,89.54
2018-05-31T17:24:58.525Z,91.00
2018-05-31T17:25:58.528Z,90.95
2018-05-31T17:26:58.530Z,89.98
2018-05-31T17:27:57.602Z,90.95
2018-05-31T17:28:58.527Z,89.89
2018-05-31T17:29:57.474Z,89.69
2018-05-31T17:30:58.116Z,89.89
2018-05-31T17:31:58.028Z,90.95
2018-05-31T17:32:57.270Z,90.08
2018-05-31T17:33:57.201Z,90.28
2018-05-31T17:34:58.112Z,89.40
2018-05-31T17:35:58.035Z,90.57
2018-05-31T17:36:57.528Z,89.94
2018-05-31T17:37:56.930Z,89.65
2018-05-31T17:38:56.864Z,90.14
2018-05-31T17:39:57.530Z,89.07
2018-05-31T17:40:56.727Z,89.55
2018-05-31T17:41:57.531Z,88.64
2018-05-31T17:42:56.617Z,89.03
2018-05-31T17:43:58.036Z,87.82
2018-05-31T17:44:56.460Z,88.01
2018-05-31T17:45:56.390Z,88.55
2018-05-31T17:46:56.323Z,86.99
2018-05-31T17:47:57.035Z,86.08
2018-05-31T17:48:56.188Z,85.50
2018-05-31T17:49:57.033Z,84.53
2018-05-31T17:50:56.058Z,84.39
2018-05-31T17:51:55.986Z,83.91
2018-05-31T17:52:55.919Z,85.17
2018-05-31T17:53:55.862Z,83.13
2018-05-31T17:54:55.790Z,82.84
2018-05-31T17:55:55.736Z,81.97
2018-05-31T17:56:55.647Z,83.81
2018-05-31T17:57:55.580Z,82.41
2018-05-31T17:58:55.510Z,81.83
2018-05-31T17:59:55.469Z,82.51
2018-05-31T18:00:55.373Z,82.32
2018-05-31T18:01:55.322Z,81.64
2018-05-31T18:02:55.272Z,82.03
2018-05-31T18:03:56.039Z,82.22
2018-05-31T18:04:55.101Z,82.80
2018-05-31T18:05:56.038Z,82.51
2018-05-31T18:06:54.987Z,81.45
2018-05-31T18:07:54.900Z,81.64
2018-05-31T18:08:55.541Z,80.96
2018-05-31T18:09:54.768Z,79.50
2018-05-31T18:10:55.540Z,79.80
2018-05-31T18:11:54.625Z,82.22
2018-05-31T18:12:55.544Z,81.83
2018-05-31T18:13:54.493Z,82.41
2018-05-31T18:14:54.415Z,82.80
2018-05-31T18:15:54.347Z,80.87
2018-05-31T18:16:55.543Z,80.96
2018-05-31T18:17:54.209Z,81.54
2018-05-31T18:18:54.149Z,81.83
2018-05-31T18:19:54.072Z,82.18
2018-05-31T18:20:54.005Z,80.82
2018-05-31T18:21:54.544Z,79.47
2018-05-31T18:22:53.882Z,80.15
2018-05-31T18:23:54.549Z,79.85
2018-05-31T18:24:53.733Z,80.54
2018-05-31T18:25:53.666Z,82.12
2018-05-31T18:26:54.547Z,79.76
2018-05-31T18:27:53.543Z,80.44
2018-05-31T18:28:53.467Z,79.85
2018-05-31T18:29:54.058Z,79.95
2018-05-31T18:30:53.325Z,79.47
2018-05-31T18:31:53.248Z,79.85
2018-05-31T18:32:54.057Z,79.47
2018-05-31T18:33:54.050Z,79.27
2018-05-31T18:34:53.573Z,78.79
2018-05-31T18:35:53.550Z,79.04
2018-05-31T18:36:53.554Z,78.27
2018-05-31T18:37:52.833Z,78.36
2018-05-31T18:38:52.768Z,77.01
2018-05-31T18:39:52.697Z,75.17
2018-05-31T18:40:52.635Z,74.17